sensor_id;sensor_type;location;lat;lon;timestamp;temperature;humidity
24262;DHT22;12385;51.412;5.540;2023-08-06T00:02:25;17.20;99.90
24262;DHT22;12385;51.412;5.540;2023-08-06T00:04:50;17.20;99.90
24262;DHT22;12385;51.412;5.540;2023-08-06T00:07:16;17.20;99.90
24262;DHT22;12385;51.412;5.540;2023-08-06T00:09:42;17.20;99.90
24262;DHT22;12385;51.412;5.540;2023-08-06T00:12:08;17.20;99.90
24262;DHT22;12385;51.412;5.540;2023-08-06T00:14:34;17.20;99.90
24262;DHT22;12385;51.412;5.540;2023-08-06T00:17:00;17.20;99.90
24262;DHT22;12385;51.412;5.540;2023-08-06T00:19:25;17.20;99.90
24262;DHT22;12385;51.412;5.540;2023-08-06T00:21:51;17.20;99.90
24262;DHT22;12385;51.412;5.540;2023-08-06T00:24:17;17.20;99.90
24262;DHT22;12385;51.412;5.540;2023-08-06T00:26:42;17.20;99.90
24262;DHT22;12385;51.412;5.540;2023-08-06T00:29:08;17.20;99.90
24262;DHT22;12385;51.412;5.540;2023-08-06T00:31:33;17.20;99.90
24262;DHT22;12385;51.412;5.540;2023-08-06T00:33:59;17.10;99.90
24262;DHT22;12385;51.412;5.540;2023-08-06T00:36:26;17.10;99.90
24262;DHT22;12385;51.412;5.540;2023-08-06T00:38:52;17.10;99.90
24262;DHT22;12385;51.412;5.540;2023-08-06T00:41:17;17.00;99.90
24262;DHT22;12385;51.412;5.540;2023-08-06T00:43:43;17.10;99.90
24262;DHT22;12385;51.412;5.540;2023-08-06T00:46:09;17.00;99.90
24262;DHT22;12385;51.412;5.540;2023-08-06T00:48:35;17.00;99.90
24262;DHT22;12385;51.412;5.540;2023-08-06T00:51:01;17.00;99.90
24262;DHT22;12385;51.412;5.540;2023-08-06T00:53:27;17.00;99.90
24262;DHT22;12385;51.412;5.540;2023-08-06T00:55:53;17.00;99.90
24262;DHT22;12385;51.412;5.540;2023-08-06T00:58:19;16.90;99.90
24262;DHT22;12385;51.412;5.540;2023-08-06T01:00:45;16.90;99.90
24262;DHT22;12385;51.412;5.540;2023-08-06T01:03:11;16.90;99.90
24262;DHT22;12385;51.412;5.540;2023-08-06T01:05:37;16.90;99.90
24262;DHT22;12385;51.412;5.540;2023-08-06T01:08:12;16.80;99.90
24262;DHT22;12385;51.412;5.540;2023-08-06T01:13:42;16.70;99.90
24262;DHT22;12385;51.412;5.540;2023-08-06T01:16:10;16.70;99.90
24262;DHT22;12385;51.412;5.540;2023-08-06T01:18:36;16.60;99.90
24262;DHT22;12385;51.412;5.540;2023-08-06T01:21:04;16.60;99.90
24262;DHT22;12385;51.412;5.540;2023-08-06T01:23:30;16.60;99.90
24262;DHT22;12385;51.412;5.540;2023-08-06T01:31:37;16.50;99.90
24262;DHT22;12385;51.412;5.540;2023-08-06T01:34:06;16.40;99.90
24262;DHT22;12385;51.412;5.540;2023-08-06T01:36:32;16.40;99.90
24262;DHT22;12385;51.412;5.540;2023-08-06T01:38:59;16.40;99.90
24262;DHT22;12385;51.412;5.540;2023-08-06T01:41:25;16.40;99.90
24262;DHT22;12385;51.412;5.540;2023-08-06T01:43:50;16.50;99.90
24262;DHT22;12385;51.412;5.540;2023-08-06T01:46:16;16.50;99.90
24262;DHT22;12385;51.412;5.540;2023-08-06T01:48:42;16.60;99.90
24262;DHT22;12385;51.412;5.540;2023-08-06T01:51:07;16.60;99.90
24262;DHT22;12385;51.412;5.540;2023-08-06T01:53:33;16.60;99.90
24262;DHT22;12385;51.412;5.540;2023-08-06T01:55:59;16.70;99.90
24262;DHT22;12385;51.412;5.540;2023-08-06T01:58:25;16.70;99.90
24262;DHT22;12385;51.412;5.540;2023-08-06T02:00:50;16.80;99.90
24262;DHT22;12385;51.412;5.540;2023-08-06T02:03:16;16.80;99.90
24262;DHT22;12385;51.412;5.540;2023-08-06T02:05:42;16.80;99.90
24262;DHT22;12385;51.412;5.540;2023-08-06T02:08:08;16.80;99.90
24262;DHT22;12385;51.412;5.540;2023-08-06T02:10:33;16.80;99.90
24262;DHT22;12385;51.412;5.540;2023-08-06T02:12:59;16.80;99.90
24262;DHT22;12385;51.412;5.540;2023-08-06T02:15:25;16.80;99.90
24262;DHT22;12385;51.412;5.540;2023-08-06T02:17:51;16.80;99.90
24262;DHT22;12385;51.412;5.540;2023-08-06T02:20:16;16.80;99.90
24262;DHT22;12385;51.412;5.540;2023-08-06T02:22:42;16.80;99.90
24262;DHT22;12385;51.412;5.540;2023-08-06T02:25:08;16.80;99.90
24262;DHT22;12385;51.412;5.540;2023-08-06T02:27:34;16.80;99.90
24262;DHT22;12385;51.412;5.540;2023-08-06T02:29:59;16.80;99.90
24262;DHT22;12385;51.412;5.540;2023-08-06T02:32:25;16.80;99.90
24262;DHT22;12385;51.412;5.540;2023-08-06T02:34:51;16.80;99.90
24262;DHT22;12385;51.412;5.540;2023-08-06T02:37:16;16.80;99.90
24262;DHT22;12385;51.412;5.540;2023-08-06T02:39:42;16.80;99.90
24262;DHT22;12385;51.412;5.540;2023-08-06T02:42:08;16.80;99.90
24262;DHT22;12385;51.412;5.540;2023-08-06T02:44:35;16.80;99.90
24262;DHT22;12385;51.412;5.540;2023-08-06T02:47:01;16.80;99.90
24262;DHT22;12385;51.412;5.540;2023-08-06T02:49:27;16.80;99.90
24262;DHT22;12385;51.412;5.540;2023-08-06T02:51:53;16.80;99.90
24262;DHT22;12385;51.412;5.540;2023-08-06T02:54:19;16.80;99.90
24262;DHT22;12385;51.412;5.540;2023-08-06T02:56:48;16.80;99.90
24262;DHT22;12385;51.412;5.540;2023-08-06T02:59:13;16.80;99.90
24262;DHT22;12385;51.412;5.540;2023-08-06T03:01:39;16.80;99.90
24262;DHT22;12385;51.412;5.540;2023-08-06T03:04:05;16.80;99.90
24262;DHT22;12385;51.412;5.540;2023-08-06T03:06:30;16.80;99.90
24262;DHT22;12385;51.412;5.540;2023-08-06T03:08:56;16.80;99.90
24262;DHT22;12385;51.412;5.540;2023-08-06T03:11:22;16.70;99.90
24262;DHT22;12385;51.412;5.540;2023-08-06T03:13:48;16.70;99.90
24262;DHT22;12385;51.412;5.540;2023-08-06T03:16:13;16.70;99.90
24262;DHT22;12385;51.412;5.540;2023-08-06T03:18:40;16.60;99.90
24262;DHT22;12385;51.412;5.540;2023-08-06T03:21:05;16.70;99.90
24262;DHT22;12385;51.412;5.540;2023-08-06T03:23:31;16.70;99.90
24262;DHT22;12385;51.412;5.540;2023-08-06T03:26:03;16.60;99.90
24262;DHT22;12385;51.412;5.540;2023-08-06T03:28:29;16.60;99.90
24262;DHT22;12385;51.412;5.540;2023-08-06T03:31:02;16.60;99.90
24262;DHT22;12385;51.412;5.540;2023-08-06T03:33:28;16.60;99.90
24262;DHT22;12385;51.412;5.540;2023-08-06T03:35:54;16.50;99.90
24262;DHT22;12385;51.412;5.540;2023-08-06T03:38:19;16.50;99.90
24262;DHT22;12385;51.412;5.540;2023-08-06T03:40:49;16.50;99.90
24262;DHT22;12385;51.412;5.540;2023-08-06T03:43:14;16.50;99.90
24262;DHT22;12385;51.412;5.540;2023-08-06T03:45:41;16.50;99.90
24262;DHT22;12385;51.412;5.540;2023-08-06T03:48:07;16.50;99.90
24262;DHT22;12385;51.412;5.540;2023-08-06T03:50:33;16.50;99.90
24262;DHT22;12385;51.412;5.540;2023-08-06T03:52:59;16.50;99.90
24262;DHT22;12385;51.412;5.540;2023-08-06T03:55:24;16.50;99.90
24262;DHT22;12385;51.412;5.540;2023-08-06T03:57:50;16.50;99.90
24262;DHT22;12385;51.412;5.540;2023-08-06T04:00:16;16.40;99.90
24262;DHT22;12385;51.412;5.540;2023-08-06T04:02:42;16.40;99.90
24262;DHT22;12385;51.412;5.540;2023-08-06T04:05:08;16.40;99.90
24262;DHT22;12385;51.412;5.540;2023-08-06T04:07:34;16.40;99.90
24262;DHT22;12385;51.412;5.540;2023-08-06T04:10:02;16.30;99.90
24262;DHT22;12385;51.412;5.540;2023-08-06T04:12:28;16.30;99.90
24262;DHT22;12385;51.412;5.540;2023-08-06T04:14:55;16.30;99.90
24262;DHT22;12385;51.412;5.540;2023-08-06T04:17:22;16.30;99.90
24262;DHT22;12385;51.412;5.540;2023-08-06T04:19:51;16.30;99.90
24262;DHT22;12385;51.412;5.540;2023-08-06T04:22:18;16.20;99.90
24262;DHT22;12385;51.412;5.540;2023-08-06T04:24:44;16.20;99.90
24262;DHT22;12385;51.412;5.540;2023-08-06T04:27:10;16.20;99.90
24262;DHT22;12385;51.412;5.540;2023-08-06T04:29:36;16.20;99.90
24262;DHT22;12385;51.412;5.540;2023-08-06T04:32:03;16.30;99.90
24262;DHT22;12385;51.412;5.540;2023-08-06T04:34:29;16.30;99.90
24262;DHT22;12385;51.412;5.540;2023-08-06T04:36:55;16.30;99.90
24262;DHT22;12385;51.412;5.540;2023-08-06T04:39:21;16.30;99.90
24262;DHT22;12385;51.412;5.540;2023-08-06T04:41:47;16.30;99.90
24262;DHT22;12385;51.412;5.540;2023-08-06T04:44:12;16.30;99.90
24262;DHT22;12385;51.412;5.540;2023-08-06T04:46:38;16.30;99.90
24262;DHT22;12385;51.412;5.540;2023-08-06T04:49:03;16.30;99.90
24262;DHT22;12385;51.412;5.540;2023-08-06T04:51:29;16.30;99.90
24262;DHT22;12385;51.412;5.540;2023-08-06T04:53:56;16.20;99.90
24262;DHT22;12385;51.412;5.540;2023-08-06T04:56:22;16.30;99.90
24262;DHT22;12385;51.412;5.540;2023-08-06T04:58:48;16.20;99.90
24262;DHT22;12385;51.412;5.540;2023-08-06T05:01:14;16.20;99.90
24262;DHT22;12385;51.412;5.540;2023-08-06T05:03:39;16.20;99.90
24262;DHT22;12385;51.412;5.540;2023-08-06T05:06:05;16.20;99.90
24262;DHT22;12385;51.412;5.540;2023-08-06T05:08:31;16.20;99.90
24262;DHT22;12385;51.412;5.540;2023-08-06T05:10:56;16.20;99.90
24262;DHT22;12385;51.412;5.540;2023-08-06T05:13:22;16.30;99.90
24262;DHT22;12385;51.412;5.540;2023-08-06T05:15:48;16.30;99.90
24262;DHT22;12385;51.412;5.540;2023-08-06T05:18:13;16.30;99.90
24262;DHT22;12385;51.412;5.540;2023-08-06T05:20:42;16.30;99.90
24262;DHT22;12385;51.412;5.540;2023-08-06T05:23:08;16.30;99.90
24262;DHT22;12385;51.412;5.540;2023-08-06T05:25:39;16.40;99.90
24262;DHT22;12385;51.412;5.540;2023-08-06T05:28:05;16.40;99.90
24262;DHT22;12385;51.412;5.540;2023-08-06T05:30:31;16.40;99.90
24262;DHT22;12385;51.412;5.540;2023-08-06T05:32:56;16.40;99.90
24262;DHT22;12385;51.412;5.540;2023-08-06T05:35:22;16.40;99.90
24262;DHT22;12385;51.412;5.540;2023-08-06T05:37:49;16.40;99.90
24262;DHT22;12385;51.412;5.540;2023-08-06T05:40:18;16.40;99.90
24262;DHT22;12385;51.412;5.540;2023-08-06T05:42:45;16.40;99.90
24262;DHT22;12385;51.412;5.540;2023-08-06T05:45:11;16.50;99.90
24262;DHT22;12385;51.412;5.540;2023-08-06T05:47:36;16.50;99.90
24262;DHT22;12385;51.412;5.540;2023-08-06T05:50:02;16.60;99.90
24262;DHT22;12385;51.412;5.540;2023-08-06T05:52:28;16.60;99.90
24262;DHT22;12385;51.412;5.540;2023-08-06T05:54:53;16.70;99.90
24262;DHT22;12385;51.412;5.540;2023-08-06T05:57:20;16.80;99.90
24262;DHT22;12385;51.412;5.540;2023-08-06T05:59:46;16.80;99.90
24262;DHT22;12385;51.412;5.540;2023-08-06T06:02:11;16.90;99.90
24262;DHT22;12385;51.412;5.540;2023-08-06T06:04:37;17.00;99.90
24262;DHT22;12385;51.412;5.540;2023-08-06T06:07:03;17.10;99.90
24262;DHT22;12385;51.412;5.540;2023-08-06T06:09:29;17.10;99.90
24262;DHT22;12385;51.412;5.540;2023-08-06T06:11:55;17.20;99.90
24262;DHT22;12385;51.412;5.540;2023-08-06T06:14:20;17.20;99.90
24262;DHT22;12385;51.412;5.540;2023-08-06T06:16:46;17.30;99.90
24262;DHT22;12385;51.412;5.540;2023-08-06T06:19:12;17.40;99.90
24262;DHT22;12385;51.412;5.540;2023-08-06T06:21:38;17.50;99.90
24262;DHT22;12385;51.412;5.540;2023-08-06T06:24:05;17.60;99.90
24262;DHT22;12385;51.412;5.540;2023-08-06T06:26:31;17.60;99.90
24262;DHT22;12385;51.412;5.540;2023-08-06T06:28:57;17.60;99.90
24262;DHT22;12385;51.412;5.540;2023-08-06T06:31:23;17.60;99.90
24262;DHT22;12385;51.412;5.540;2023-08-06T06:33:50;17.70;99.90
24262;DHT22;12385;51.412;5.540;2023-08-06T06:36:15;17.70;99.90
24262;DHT22;12385;51.412;5.540;2023-08-06T06:38:41;17.70;99.90
24262;DHT22;12385;51.412;5.540;2023-08-06T06:41:06;17.70;99.90
24262;DHT22;12385;51.412;5.540;2023-08-06T06:43:32;17.70;99.90
24262;DHT22;12385;51.412;5.540;2023-08-06T06:45:59;17.70;99.90
24262;DHT22;12385;51.412;5.540;2023-08-06T06:48:31;17.70;99.90
24262;DHT22;12385;51.412;5.540;2023-08-06T06:50:56;17.70;99.90
24262;DHT22;12385;51.412;5.540;2023-08-06T06:53:22;17.70;99.90
24262;DHT22;12385;51.412;5.540;2023-08-06T06:55:55;17.70;99.90
24262;DHT22;12385;51.412;5.540;2023-08-06T06:58:20;17.70;99.90
24262;DHT22;12385;51.412;5.540;2023-08-06T07:00:47;17.70;99.90
24262;DHT22;12385;51.412;5.540;2023-08-06T07:03:14;17.60;99.90
24262;DHT22;12385;51.412;5.540;2023-08-06T07:05:40;17.50;99.90
24262;DHT22;12385;51.412;5.540;2023-08-06T07:08:05;17.40;99.90
24262;DHT22;12385;51.412;5.540;2023-08-06T07:10:31;17.40;99.90
24262;DHT22;12385;51.412;5.540;2023-08-06T07:12:57;17.20;99.90
24262;DHT22;12385;51.412;5.540;2023-08-06T07:15:22;17.00;99.90
24262;DHT22;12385;51.412;5.540;2023-08-06T07:17:48;16.70;99.90
24262;DHT22;12385;51.412;5.540;2023-08-06T07:20:14;16.60;99.90
24262;DHT22;12385;51.412;5.540;2023-08-06T07:22:39;16.40;99.90
24262;DHT22;12385;51.412;5.540;2023-08-06T07:25:05;16.30;99.90
24262;DHT22;12385;51.412;5.540;2023-08-06T07:27:32;16.20;99.90
24262;DHT22;12385;51.412;5.540;2023-08-06T07:29:58;16.20;99.90
24262;DHT22;12385;51.412;5.540;2023-08-06T07:32:24;16.10;99.90
24262;DHT22;12385;51.412;5.540;2023-08-06T07:34:50;16.00;99.90
24262;DHT22;12385;51.412;5.540;2023-08-06T07:37:23;15.90;99.90
24262;DHT22;12385;51.412;5.540;2023-08-06T07:39:48;15.90;99.90
24262;DHT22;12385;51.412;5.540;2023-08-06T07:42:14;15.80;99.90
24262;DHT22;12385;51.412;5.540;2023-08-06T07:44:40;15.80;99.90
24262;DHT22;12385;51.412;5.540;2023-08-06T07:47:05;15.70;99.90
24262;DHT22;12385;51.412;5.540;2023-08-06T07:49:31;15.70;99.90
24262;DHT22;12385;51.412;5.540;2023-08-06T07:51:56;15.60;99.90
24262;DHT22;12385;51.412;5.540;2023-08-06T07:54:22;15.50;99.90
24262;DHT22;12385;51.412;5.540;2023-08-06T07:56:49;15.50;99.90
24262;DHT22;12385;51.412;5.540;2023-08-06T07:59:15;15.40;99.90
24262;DHT22;12385;51.412;5.540;2023-08-06T08:01:41;15.30;99.90
24262;DHT22;12385;51.412;5.540;2023-08-06T08:04:06;15.30;99.90
24262;DHT22;12385;51.412;5.540;2023-08-06T08:06:33;15.20;99.90
24262;DHT22;12385;51.412;5.540;2023-08-06T08:08:59;15.20;99.90
24262;DHT22;12385;51.412;5.540;2023-08-06T08:11:25;15.20;99.90
24262;DHT22;12385;51.412;5.540;2023-08-06T08:13:51;15.20;99.90
24262;DHT22;12385;51.412;5.540;2023-08-06T08:16:17;15.10;99.90
24262;DHT22;12385;51.412;5.540;2023-08-06T08:18:43;15.20;99.90
24262;DHT22;12385;51.412;5.540;2023-08-06T08:21:08;15.20;99.90
24262;DHT22;12385;51.412;5.540;2023-08-06T08:23:34;15.20;99.90
24262;DHT22;12385;51.412;5.540;2023-08-06T08:26:00;15.20;99.90
24262;DHT22;12385;51.412;5.540;2023-08-06T08:28:27;15.20;99.90
24262;DHT22;12385;51.412;5.540;2023-08-06T08:30:53;15.30;99.90
24262;DHT22;12385;51.412;5.540;2023-08-06T08:33:19;15.30;99.90
24262;DHT22;12385;51.412;5.540;2023-08-06T08:35:46;15.40;99.90
24262;DHT22;12385;51.412;5.540;2023-08-06T08:38:12;15.40;99.90
24262;DHT22;12385;51.412;5.540;2023-08-06T08:40:45;15.50;99.90
24262;DHT22;12385;51.412;5.540;2023-08-06T08:43:12;15.50;99.90
24262;DHT22;12385;51.412;5.540;2023-08-06T08:45:40;15.50;99.90
24262;DHT22;12385;51.412;5.540;2023-08-06T08:48:08;15.50;99.90
24262;DHT22;12385;51.412;5.540;2023-08-06T08:50:35;15.50;99.90
24262;DHT22;12385;51.412;5.540;2023-08-06T08:53:01;15.50;99.90
24262;DHT22;12385;51.412;5.540;2023-08-06T08:55:27;15.50;99.90
24262;DHT22;12385;51.412;5.540;2023-08-06T08:57:53;15.50;99.90
24262;DHT22;12385;51.412;5.540;2023-08-06T09:00:18;15.50;99.90
24262;DHT22;12385;51.412;5.540;2023-08-06T09:02:46;15.50;99.90
24262;DHT22;12385;51.412;5.540;2023-08-06T09:05:13;15.50;99.90
24262;DHT22;12385;51.412;5.540;2023-08-06T09:07:42;15.50;99.90
24262;DHT22;12385;51.412;5.540;2023-08-06T09:10:11;15.50;99.90
24262;DHT22;12385;51.412;5.540;2023-08-06T09:12:39;15.50;99.90
24262;DHT22;12385;51.412;5.540;2023-08-06T09:15:05;15.50;99.90
24262;DHT22;12385;51.412;5.540;2023-08-06T09:17:31;15.60;99.90
24262;DHT22;12385;51.412;5.540;2023-08-06T09:19:58;15.60;99.90
24262;DHT22;12385;51.412;5.540;2023-08-06T09:22:23;15.60;99.90
24262;DHT22;12385;51.412;5.540;2023-08-06T09:24:49;15.70;99.90
24262;DHT22;12385;51.412;5.540;2023-08-06T09:27:15;15.80;99.90
24262;DHT22;12385;51.412;5.540;2023-08-06T09:29:44;15.80;99.90
24262;DHT22;12385;51.412;5.540;2023-08-06T09:32:11;15.90;99.90
24262;DHT22;12385;51.412;5.540;2023-08-06T09:34:39;16.00;99.90
24262;DHT22;12385;51.412;5.540;2023-08-06T09:37:06;16.00;99.90
24262;DHT22;12385;51.412;5.540;2023-08-06T09:39:33;16.10;99.90
24262;DHT22;12385;51.412;5.540;2023-08-06T09:42:00;16.10;99.90
24262;DHT22;12385;51.412;5.540;2023-08-06T09:44:28;16.10;99.90
24262;DHT22;12385;51.412;5.540;2023-08-06T09:46:56;16.10;99.90
24262;DHT22;12385;51.412;5.540;2023-08-06T09:49:25;16.10;99.90
24262;DHT22;12385;51.412;5.540;2023-08-06T09:51:52;16.10;99.90
24262;DHT22;12385;51.412;5.540;2023-08-06T09:54:22;16.10;99.90
24262;DHT22;12385;51.412;5.540;2023-08-06T09:56:48;16.10;99.90
24262;DHT22;12385;51.412;5.540;2023-08-06T09:59:14;16.00;99.90
24262;DHT22;12385;51.412;5.540;2023-08-06T10:01:41;16.00;99.90
24262;DHT22;12385;51.412;5.540;2023-08-06T10:04:07;16.00;99.90
24262;DHT22;12385;51.412;5.540;2023-08-06T10:06:34;16.00;99.90
24262;DHT22;12385;51.412;5.540;2023-08-06T10:09:06;16.00;99.90
24262;DHT22;12385;51.412;5.540;2023-08-06T10:11:36;16.00;99.90
24262;DHT22;12385;51.412;5.540;2023-08-06T10:14:28;16.00;99.90
24262;DHT22;12385;51.412;5.540;2023-08-06T10:16:55;16.00;99.90
24262;DHT22;12385;51.412;5.540;2023-08-06T10:19:21;16.00;99.90
24262;DHT22;12385;51.412;5.540;2023-08-06T10:22:11;16.00;99.90
24262;DHT22;12385;51.412;5.540;2023-08-06T10:24:48;16.00;99.90
24262;DHT22;12385;51.412;5.540;2023-08-06T10:27:19;16.00;99.90
24262;DHT22;12385;51.412;5.540;2023-08-06T10:29:45;16.00;99.90
24262;DHT22;12385;51.412;5.540;2023-08-06T10:32:10;16.10;99.90
24262;DHT22;12385;51.412;5.540;2023-08-06T10:34:55;16.00;99.90
24262;DHT22;12385;51.412;5.540;2023-08-06T10:37:37;16.00;99.90
24262;DHT22;12385;51.412;5.540;2023-08-06T10:40:03;15.90;99.90
24262;DHT22;12385;51.412;5.540;2023-08-06T10:42:32;15.80;99.90
24262;DHT22;12385;51.412;5.540;2023-08-06T10:45:19;15.80;99.90
24262;DHT22;12385;51.412;5.540;2023-08-06T10:47:46;15.80;99.90
24262;DHT22;12385;51.412;5.540;2023-08-06T10:50:14;15.80;99.90
24262;DHT22;12385;51.412;5.540;2023-08-06T10:52:42;15.90;99.90
24262;DHT22;12385;51.412;5.540;2023-08-06T10:55:09;15.90;99.90
24262;DHT22;12385;51.412;5.540;2023-08-06T10:57:35;16.00;99.90
24262;DHT22;12385;51.412;5.540;2023-08-06T11:00:01;16.00;99.90
24262;DHT22;12385;51.412;5.540;2023-08-06T11:02:26;16.10;99.90
24262;DHT22;12385;51.412;5.540;2023-08-06T11:04:53;16.10;99.90
24262;DHT22;12385;51.412;5.540;2023-08-06T11:07:19;16.10;99.90
24262;DHT22;12385;51.412;5.540;2023-08-06T11:09:50;16.10;99.90
24262;DHT22;12385;51.412;5.540;2023-08-06T11:12:19;16.20;99.90
24262;DHT22;12385;51.412;5.540;2023-08-06T11:14:50;16.30;99.90
24262;DHT22;12385;51.412;5.540;2023-08-06T11:17:15;16.30;99.90
24262;DHT22;12385;51.412;5.540;2023-08-06T11:19:41;16.40;99.90
24262;DHT22;12385;51.412;5.540;2023-08-06T11:22:07;16.40;99.90
24262;DHT22;12385;51.412;5.540;2023-08-06T11:24:33;16.50;99.90
24262;DHT22;12385;51.412;5.540;2023-08-06T11:26:58;16.50;99.90
24262;DHT22;12385;51.412;5.540;2023-08-06T11:29:24;16.50;99.90
24262;DHT22;12385;51.412;5.540;2023-08-06T11:31:50;16.50;99.90
24262;DHT22;12385;51.412;5.540;2023-08-06T11:34:15;16.50;99.90
24262;DHT22;12385;51.412;5.540;2023-08-06T11:36:42;16.50;99.90
24262;DHT22;12385;51.412;5.540;2023-08-06T11:39:09;16.60;99.90
24262;DHT22;12385;51.412;5.540;2023-08-06T11:41:36;16.50;99.90
24262;DHT22;12385;51.412;5.540;2023-08-06T11:44:03;16.50;99.90
24262;DHT22;12385;51.412;5.540;2023-08-06T11:46:29;16.50;99.90
24262;DHT22;12385;51.412;5.540;2023-08-06T11:48:59;16.50;99.90
24262;DHT22;12385;51.412;5.540;2023-08-06T11:51:27;16.40;99.90
24262;DHT22;12385;51.412;5.540;2023-08-06T11:53:57;16.40;99.90
24262;DHT22;12385;51.412;5.540;2023-08-06T11:56:23;16.50;99.90
24262;DHT22;12385;51.412;5.540;2023-08-06T11:58:49;16.60;99.90
24262;DHT22;12385;51.412;5.540;2023-08-06T12:01:15;16.60;99.90
24262;DHT22;12385;51.412;5.540;2023-08-06T12:03:41;16.80;99.90
24262;DHT22;12385;51.412;5.540;2023-08-06T12:06:07;16.90;99.90
24262;DHT22;12385;51.412;5.540;2023-08-06T12:08:33;16.90;99.90
24262;DHT22;12385;51.412;5.540;2023-08-06T12:10:59;17.00;99.90
24262;DHT22;12385;51.412;5.540;2023-08-06T12:13:25;17.00;99.90
24262;DHT22;12385;51.412;5.540;2023-08-06T12:15:50;17.10;99.90
24262;DHT22;12385;51.412;5.540;2023-08-06T12:18:18;17.10;99.90
24262;DHT22;12385;51.412;5.540;2023-08-06T12:20:45;17.10;99.90
24262;DHT22;12385;51.412;5.540;2023-08-06T12:23:10;17.20;99.90
24262;DHT22;12385;51.412;5.540;2023-08-06T12:25:40;17.20;99.90
24262;DHT22;12385;51.412;5.540;2023-08-06T12:28:06;17.10;99.90
24262;DHT22;12385;51.412;5.540;2023-08-06T12:30:33;17.00;99.90
24262;DHT22;12385;51.412;5.540;2023-08-06T12:32:58;17.00;99.90
24262;DHT22;12385;51.412;5.540;2023-08-06T12:35:24;16.90;99.90
24262;DHT22;12385;51.412;5.540;2023-08-06T12:37:51;16.70;99.90
24262;DHT22;12385;51.412;5.540;2023-08-06T12:40:22;16.60;99.90
24262;DHT22;12385;51.412;5.540;2023-08-06T12:42:53;16.60;99.90
24262;DHT22;12385;51.412;5.540;2023-08-06T12:45:19;16.60;99.90
24262;DHT22;12385;51.412;5.540;2023-08-06T12:47:46;16.70;99.90
24262;DHT22;12385;51.412;5.540;2023-08-06T12:50:13;16.70;99.90
24262;DHT22;12385;51.412;5.540;2023-08-06T12:52:39;16.80;99.90
24262;DHT22;12385;51.412;5.540;2023-08-06T12:55:04;16.80;99.90
24262;DHT22;12385;51.412;5.540;2023-08-06T12:57:30;16.80;99.90
24262;DHT22;12385;51.412;5.540;2023-08-06T12:59:56;16.80;99.90
24262;DHT22;12385;51.412;5.540;2023-08-06T13:02:21;16.80;99.90
24262;DHT22;12385;51.412;5.540;2023-08-06T13:04:47;16.90;99.90
24262;DHT22;12385;51.412;5.540;2023-08-06T13:07:13;17.00;99.90
24262;DHT22;12385;51.412;5.540;2023-08-06T13:09:38;17.10;99.90
24262;DHT22;12385;51.412;5.540;2023-08-06T13:12:04;17.20;99.90
24262;DHT22;12385;51.412;5.540;2023-08-06T13:14:31;17.20;99.90
24262;DHT22;12385;51.412;5.540;2023-08-06T13:16:57;17.30;99.90
24262;DHT22;12385;51.412;5.540;2023-08-06T13:19:22;17.50;99.90
24262;DHT22;12385;51.412;5.540;2023-08-06T13:24:15;17.70;99.90
24262;DHT22;12385;51.412;5.540;2023-08-06T13:26:41;17.90;99.90
24262;DHT22;12385;51.412;5.540;2023-08-06T13:29:06;18.00;99.90
24262;DHT22;12385;51.412;5.540;2023-08-06T13:31:36;18.20;99.90
24262;DHT22;12385;51.412;5.540;2023-08-06T13:34:02;18.30;99.90
24262;DHT22;12385;51.412;5.540;2023-08-06T13:36:28;18.40;99.90
24262;DHT22;12385;51.412;5.540;2023-08-06T13:38:55;18.50;99.90
24262;DHT22;12385;51.412;5.540;2023-08-06T13:41:21;18.50;99.90
24262;DHT22;12385;51.412;5.540;2023-08-06T13:43:47;18.40;99.90
24262;DHT22;12385;51.412;5.540;2023-08-06T13:46:12;18.50;99.90
24262;DHT22;12385;51.412;5.540;2023-08-06T13:48:43;18.40;99.90
24262;DHT22;12385;51.412;5.540;2023-08-06T13:51:11;18.30;99.90
24262;DHT22;12385;51.412;5.540;2023-08-06T13:53:37;18.20;99.90
24262;DHT22;12385;51.412;5.540;2023-08-06T13:56:04;18.20;99.90
24262;DHT22;12385;51.412;5.540;2023-08-06T13:58:29;18.10;99.90
24262;DHT22;12385;51.412;5.540;2023-08-06T14:00:55;17.90;99.90
24262;DHT22;12385;51.412;5.540;2023-08-06T14:03:22;17.70;99.90
24262;DHT22;12385;51.412;5.540;2023-08-06T14:05:47;17.40;99.90
24262;DHT22;12385;51.412;5.540;2023-08-06T14:08:14;17.30;99.90
24262;DHT22;12385;51.412;5.540;2023-08-06T14:10:40;17.30;99.90
24262;DHT22;12385;51.412;5.540;2023-08-06T14:13:06;17.10;99.90
24262;DHT22;12385;51.412;5.540;2023-08-06T14:15:31;17.10;99.90
24262;DHT22;12385;51.412;5.540;2023-08-06T14:17:58;17.10;99.90
24262;DHT22;12385;51.412;5.540;2023-08-06T14:20:24;17.10;99.90
24262;DHT22;12385;51.412;5.540;2023-08-06T14:22:50;17.20;99.90
24262;DHT22;12385;51.412;5.540;2023-08-06T14:25:15;17.30;99.90
24262;DHT22;12385;51.412;5.540;2023-08-06T14:27:41;17.50;99.90
24262;DHT22;12385;51.412;5.540;2023-08-06T14:30:07;17.60;99.90
24262;DHT22;12385;51.412;5.540;2023-08-06T14:32:33;17.70;99.90
24262;DHT22;12385;51.412;5.540;2023-08-06T14:34:58;17.70;99.90
24262;DHT22;12385;51.412;5.540;2023-08-06T14:37:24;17.60;99.90
24262;DHT22;12385;51.412;5.540;2023-08-06T14:39:51;17.60;99.90
24262;DHT22;12385;51.412;5.540;2023-08-06T14:42:17;17.50;99.90
24262;DHT22;12385;51.412;5.540;2023-08-06T14:44:43;17.60;99.90
24262;DHT22;12385;51.412;5.540;2023-08-06T14:47:08;17.60;99.90
24262;DHT22;12385;51.412;5.540;2023-08-06T14:49:34;17.50;99.90
24262;DHT22;12385;51.412;5.540;2023-08-06T14:52:00;17.60;99.90
24262;DHT22;12385;51.412;5.540;2023-08-06T14:54:27;17.60;99.90
24262;DHT22;12385;51.412;5.540;2023-08-06T14:56:53;17.70;99.90
24262;DHT22;12385;51.412;5.540;2023-08-06T14:59:18;17.70;99.90
24262;DHT22;12385;51.412;5.540;2023-08-06T15:01:44;17.70;99.90
24262;DHT22;12385;51.412;5.540;2023-08-06T15:04:10;17.80;99.90
24262;DHT22;12385;51.412;5.540;2023-08-06T15:06:35;17.80;99.90
24262;DHT22;12385;51.412;5.540;2023-08-06T15:09:01;17.80;99.90
24262;DHT22;12385;51.412;5.540;2023-08-06T15:11:27;17.70;99.90
24262;DHT22;12385;51.412;5.540;2023-08-06T15:13:53;17.70;99.90
24262;DHT22;12385;51.412;5.540;2023-08-06T15:16:19;17.50;99.90
24262;DHT22;12385;51.412;5.540;2023-08-06T15:18:45;17.40;99.90
24262;DHT22;12385;51.412;5.540;2023-08-06T15:21:10;17.20;99.90
24262;DHT22;12385;51.412;5.540;2023-08-06T15:23:36;17.00;99.90
24262;DHT22;12385;51.412;5.540;2023-08-06T15:26:02;16.80;99.90
24262;DHT22;12385;51.412;5.540;2023-08-06T15:28:28;16.70;99.90
24262;DHT22;12385;51.412;5.540;2023-08-06T15:30:54;16.60;99.90
24262;DHT22;12385;51.412;5.540;2023-08-06T15:33:21;16.50;99.90
24262;DHT22;12385;51.412;5.540;2023-08-06T15:35:47;16.40;99.90
24262;DHT22;12385;51.412;5.540;2023-08-06T15:38:13;16.30;99.90